Terminal Aerodrome Forecast
Issued by NWS Boston, MA

Home | Current Version | Previous Version | Text Only | Print | Product List | Glossary On
Versions: 1 2 3 4 5 6 7 8 9 10 11 12 13 14 15 16 17 18 19 20 21 22 23 24 25 26 27 28 29 30 31 32 33 34 35 36 37 38 39 40 41 42 43
000
FTUS41 KBOX 201729
TAFPVD
TAF
KPVD 201729Z 2018/2118 17013KT P6SM BKN035
     FM202100 18012G22KT P6SM SCT040
     FM202300 19008KT P6SM SCT050
     FM210300 19007KT P6SM BKN040
     FM210900 16006KT 6SM BR BKN008
     FM211500 16008KT P6SM BKN015=

USA.gov is the U.S. government's official web portal to all federal, state and local government web resources and services.